Terminal Aerodrome Forecast
Issued by NWS

Home | Current Version | Previous Version | Text Only | Print | Product List | Glossary On
Versions: 1 2 3 4 5 6 7 8 9 10 11 12 13 14
000
FTUS46 KLOX 301742
TAFPRB
TAF
KPRB 301742Z 3018/3118 VRB03KT P6SM SCT150
     FM302100 21010KT P6SM BKN100
     FM302300 21015G22KT P6SM VCTS SCT060CB BKN100
     FM310300 21010KT P6SM BKN100
     FM310500 VRB03KT P6SM SCT100=

USA.gov is the U.S. government's official web portal to all federal, state and local government web resources and services.